Time;durP1;ratioP1;P1;durP2;ratioP2;P2;SDS_P1;SDS_P2;PMS_P1;PMS_P2;Temp;Humidity;BMP_temperature;BMP_pressure;BME280_temperature;BME280_humidity;BME280_pressure;Samples;Min_cycle;Max_cycle;Signal;HPM_P1;HPM_P2
2023/07/20 00:00:27;;;;;;;;;3.33;3.33;;;;;20.99;60.90;100933.28;4853625;29;44771;-85
2023/07/20 00:03:18;;;;;;;;;5.67;4.00;;;;;21.03;61.11;100934.09;4837814;29;44884;-84
2023/07/20 00:05:47;;;;;;;;;6.00;4.00;;;;;20.88;61.46;100925.44;4836000;29;47780;-84
2023/07/20 00:08:13;;;;;;;;;7.33;4.67;;;;;20.89;62.24;100929.03;4836332;29;45068;-84
2023/07/20 00:10:43;;;;;;;;;3.00;3.00;;;;;20.88;62.01;100927.25;4838055;29;44814;-84
2023/07/20 00:13:09;;;;;;;;;3.67;3.67;;;;;20.82;62.11;100927.41;4853913;29;44810;-84
2023/07/20 00:15:35;;;;;;;;;6.00;4.67;;;;;20.80;61.85;100924.75;4853461;29;45159;-84
2023/07/20 00:18:02;;;;;;;;;5.00;4.00;;;;;20.79;62.82;100922.97;4853914;29;45122;-85
2023/07/20 00:20:29;;;;;;;;;4.67;3.00;;;;;20.90;62.86;100938.91;4837242;29;45350;-84
2023/07/20 00:22:55;;;;;;;;;3.00;3.00;;;;;20.84;62.26;100936.38;4835095;29;44914;-84
2023/07/20 00:25:21;;;;;;;;;3.00;3.00;;;;;20.84;63.51;100937.25;4853116;29;44929;-84
2023/07/20 00:27:46;;;;;;;;;4.33;3.67;;;;;20.73;63.15;100918.59;4850888;29;44897;-85
2023/07/20 00:30:12;;;;;;;;;3.33;3.33;;;;;20.78;63.00;100932.91;4835722;29;44955;-85
2023/07/20 00:32:39;;;;;;;;;5.00;5.00;;;;;20.79;63.18;100925.69;4836432;29;44896;-84
2023/07/20 00:35:05;;;;;;;;;5.00;5.00;;;;;20.79;63.41;100931.09;4834178;29;46982;-84
2023/07/20 00:37:30;;;;;;;;;4.00;4.00;;;;;20.80;63.27;100930.16;4836022;29;44837;-83
2023/07/20 00:39:56;;;;;;;;;4.00;2.00;;;;;20.77;63.31;100925.72;4836256;29;44898;-84
2023/07/20 00:42:22;;;;;;;;;2.33;2.33;;;;;20.74;63.81;100922.19;4835661;29;44934;-84
2023/07/20 00:45:27;;;;;;;;;3.00;3.00;;;;;20.86;63.55;100935.41;4833402;29;47397;-84
2023/07/20 00:47:53;;;;;;;;;5.00;5.00;;;;;20.78;63.57;100932.00;4835669;29;44833;-84
2023/07/20 00:50:19;;;;;;;;;6.00;5.67;;;;;20.78;62.86;100927.50;4836398;29;44779;-84
2023/07/20 00:52:50;;;;;;;;;6.00;5.00;;;;;20.80;63.63;100927.44;4851245;29;44879;-84
2023/07/20 00:55:17;;;;;;;;;4.67;4.67;;;;;20.72;63.21;100924.97;4854943;29;45145;-84
2023/07/20 00:57:44;;;;;;;;;3.33;3.33;;;;;20.74;64.39;100925.81;4837798;29;45021;-84
2023/07/20 01:00:12;;;;;;;;;5.33;4.33;;;;;20.73;64.07;100928.53;4851582;29;44880;-84
2023/07/20 01:02:37;;;;;;;;;7.00;5.00;;;;;20.65;64.06;100925.13;4821252;29;44980;-85
2023/07/20 01:05:06;;;;;;;;;4.00;4.00;;;;;20.65;64.74;100926.03;4853054;29;45149;-85
2023/07/20 01:07:38;;;;;;;;;5.00;4.00;;;;;20.67;64.56;100928.69;4853372;29;44719;-85
2023/07/20 01:10:17;;;;;;;;;4.67;4.67;;;;;20.69;64.44;100921.44;4851650;29;44944;-84
2023/07/20 01:12:49;;;;;;;;;5.67;5.00;;;;;20.60;64.90;100921.66;4844070;29;44894;-84
2023/07/20 01:15:14;;;;;;;;;5.33;4.33;;;;;20.58;64.95;100921.66;4850615;29;46775;-85
2023/07/20 01:17:40;;;;;;;;;4.67;4.67;;;;;20.57;65.17;100926.16;4850456;29;44880;-84
2023/07/20 01:20:12;;;;;;;;;7.33;6.00;;;;;20.62;64.93;100920.69;4849516;29;44770;-85
2023/07/20 01:23:15;;;;;;;;;4.00;4.00;;;;;20.68;65.00;100925.03;4849483;29;44834;-85
2023/07/20 01:25:59;;;;;;;;;3.67;3.67;;;;;20.53;65.30;100910.97;4848090;29;46715;-84
2023/07/20 01:28:57;;;;;;;;;4.33;4.33;;;;;20.62;65.71;100909.00;4850103;29;44784;-84
2023/07/20 01:31:25;;;;;;;;;5.00;4.00;;;;;20.57;66.05;100912.66;4850698;29;45372;-84
2023/07/20 01:33:54;;;;;;;;;4.00;4.00;;;;;20.53;65.81;100908.25;4865178;29;44924;-84
2023/07/20 01:36:21;;;;;;;;;4.00;4.00;;;;;20.50;65.83;100905.66;4848090;29;45273;-84
2023/07/20 01:38:47;;;;;;;;;3.00;2.00;;;;;20.48;66.02;100907.50;4848451;29;45145;-85
2023/07/20 01:41:16;;;;;;;;;4.67;4.67;;;;;20.43;66.11;100906.69;4850377;29;44806;-84
2023/07/20 01:43:43;;;;;;;;;5.33;5.33;;;;;20.38;66.36;100900.53;4867879;29;45105;-85
2023/07/20 01:46:09;;;;;;;;;5.67;5.67;;;;;20.36;66.51;100905.09;4853490;29;45149;-86
2023/07/20 01:48:34;;;;;;;;;5.67;5.67;;;;;20.27;66.56;100887.28;4853701;29;44804;-85
2023/07/20 01:51:00;;;;;;;;;7.00;5.00;;;;;20.34;66.50;100901.50;4855841;29;44888;-85
2023/07/20 01:53:25;;;;;;;;;5.67;5.67;;;;;20.33;66.73;100902.44;4869150;29;44788;-85
2023/07/20 01:55:56;;;;;;;;;5.00;4.67;;;;;20.31;66.97;100896.19;4854277;29;46881;-83
2023/07/20 01:58:22;;;;;;;;;5.00;5.00;;;;;20.23;66.90;100887.38;4854262;29;45235;-83
2023/07/20 02:00:50;;;;;;;;;5.00;5.00;;;;;20.18;67.52;100888.38;4854038;29;44822;-83
2023/07/20 02:03:18;;;;;;;;;3.67;3.67;;;;;20.16;67.65;100892.94;4854976;29;44906;-83
2023/07/20 02:05:44;;;;;;;;;5.00;5.00;;;;;20.13;67.74;100901.09;4853075;29;47330;-83
2023/07/20 02:08:10;;;;;;;;;7.00;6.67;;;;;20.03;68.03;100890.53;4853252;29;44875;-83
2023/07/20 02:10:36;;;;;;;;;5.33;4.33;;;;;20.11;68.07;100892.13;4853864;29;44793;-83
2023/07/20 02:13:02;;;;;;;;;5.33;5.00;;;;;20.07;68.22;100901.22;4852672;29;44809;-83
2023/07/20 02:15:28;;;;;;;;;5.33;5.33;;;;;20.07;68.31;100898.53;4836957;29;47004;-83
2023/07/20 02:17:54;;;;;;;;;5.00;5.00;;;;;19.93;68.85;100871.84;4854650;29;44759;-83
2023/07/20 02:20:19;;;;;;;;;6.67;6.67;;;;;20.02;68.91;100888.75;4838553;29;44846;-83
2023/07/20 02:22:45;;;;;;;;;4.00;4.00;;;;;19.99;69.21;100889.72;4837946;29;44775;-84
2023/07/20 02:25:10;;;;;;;;;4.33;4.00;;;;;20.02;69.23;100896.84;4836961;29;46838;-84
2023/07/20 02:27:37;;;;;;;;;6.00;6.00;;;;;19.99;69.21;100882.50;4835094;29;45461;-83
2023/07/20 02:30:03;;;;;;;;;7.00;6.33;;;;;19.90;69.48;100876.44;4839030;29;45348;-83
2023/07/20 02:32:28;;;;;;;;;8.67;8.67;;;;;19.97;69.53;100894.25;4838360;29;44995;-83
2023/07/20 02:34:54;;;;;;;;;5.67;4.00;;;;;19.93;70.25;100887.16;4854107;29;45217;-83
2023/07/20 02:37:22;;;;;;;;;6.33;5.00;;;;;19.98;70.01;100891.53;4854712;29;45321;-83
2023/07/20 02:39:52;;;;;;;;;5.67;5.33;;;;;19.86;69.98;100890.94;4855722;29;44845;-84
2023/07/20 02:42:19;;;;;;;;;5.67;5.67;;;;;19.85;70.79;100899.94;4854072;29;44846;-84
2023/07/20 02:44:44;;;;;;;;;6.00;6.00;;;;;19.86;70.51;100899.03;4835884;29;46815;-82
2023/07/20 02:47:10;;;;;;;;;6.00;6.00;;;;;19.85;70.74;100895.41;4835446;29;44854;-83
2023/07/20 02:49:35;;;;;;;;;8.00;7.67;;;;;19.85;70.99;100894.53;4853341;29;44836;-82
2023/07/20 02:52:02;;;;;;;;;6.00;6.00;;;;;19.77;70.93;100898.31;4852303;29;44887;-83
2023/07/20 02:54:29;;;;;;;;;5.00;5.00;;;;;19.80;70.83;100901.88;4850649;29;45249;-83
2023/07/20 02:56:55;;;;;;;;;7.33;5.67;;;;;19.69;70.82;100900.25;4835568;29;45041;-84
2023/07/20 02:59:20;;;;;;;;;4.33;4.33;;;;;19.74;71.43;100898.38;4852855;29;44881;-83
2023/07/20 03:01:46;;;;;;;;;5.00;5.00;;;;;19.64;72.08;100902.16;4853261;29;44887;-83
2023/07/20 03:04:11;;;;;;;;;6.00;6.00;;;;;19.64;72.75;100904.84;4834848;29;46794;-83
2023/07/20 03:06:37;;;;;;;;;4.00;4.00;;;;;19.62;71.83;100906.69;4835837;29;44817;-83
2023/07/20 03:09:03;;;;;;;;;7.00;6.67;;;;;19.55;71.73;100891.53;4850307;29;44965;-83
2023/07/20 03:11:29;;;;;;;;;5.00;5.00;;;;;19.58;72.33;100903.16;4832596;29;44826;-84
2023/07/20 03:13:57;;;;;;;;;6.00;5.00;;;;;19.58;72.19;100902.28;4834473;29;47001;-84
2023/07/20 03:16:24;;;;;;;;;7.33;6.00;;;;;19.55;72.84;100891.53;4836633;29;45387;-84
2023/07/20 03:18:52;;;;;;;;;6.67;6.67;;;;;19.62;73.12;100893.19;4836468;29;44834;-83
2023/07/20 03:21:17;;;;;;;;;6.33;5.33;;;;;19.54;72.89;100890.66;4836026;29;44854;-82
2023/07/20 03:23:43;;;;;;;;;5.33;5.33;;;;;19.60;72.90;100897.72;4853271;29;45480;-83
2023/07/20 03:26:09;;;;;;;;;5.33;5.00;;;;;19.62;73.25;100913.91;4834849;29;45244;-83
2023/07/20 03:28:38;;;;;;;;;7.67;7.67;;;;;19.66;73.63;100905.69;4854909;29;45445;-83
2023/07/20 03:31:04;;;;;;;;;6.00;6.00;;;;;19.61;73.34;100902.19;4854935;29;44888;-83
2023/07/20 03:33:30;;;;;;;;;5.33;4.33;;;;;19.63;73.39;100907.56;4853062;29;45404;-84
2023/07/20 03:35:56;;;;;;;;;7.33;6.67;;;;;19.55;73.31;100896.94;4837305;29;44921;-84
2023/07/20 03:38:25;;;;;;;;;9.00;6.00;;;;;19.63;73.36;100900.34;4837773;29;45468;-83
2023/07/20 03:40:53;;;;;;;;;7.33;5.67;;;;;19.61;73.34;100910.28;4837798;29;44877;-84
2023/07/20 03:43:18;;;;;;;;;7.00;6.00;;;;;19.56;73.51;100912.22;4837979;29;47292;-84
2023/07/20 03:45:45;;;;;;;;;5.00;5.00;;;;;19.50;73.85;100904.25;4836645;29;44874;-82
2023/07/20 03:48:11;;;;;;;;;3.67;3.67;;;;;19.48;74.07;100906.06;4836338;29;44803;-83
2023/07/20 03:50:36;;;;;;;;;6.67;4.00;;;;;19.43;74.07;100905.28;4835739;29;44919;-83
2023/07/20 03:53:03;;;;;;;;;7.67;6.67;;;;;19.44;73.87;100901.66;4853386;29;45135;-82
2023/07/20 03:55:28;;;;;;;;;4.00;4.00;;;;;19.38;74.68;100899.97;4835739;29;45073;-82
2023/07/20 03:57:54;;;;;;;;;6.67;4.33;;;;;19.37;74.64;100904.50;4834501;29;44980;-84
2023/07/20 04:00:20;;;;;;;;;8.00;8.00;;;;;19.34;75.12;100901.84;4851473;29;45334;-84
2023/07/20 04:02:45;;;;;;;;;8.67;7.00;;;;;19.32;75.56;100911.75;4852515;29;45660;-83
2023/07/20 04:05:10;;;;;;;;;5.67;4.33;;;;;19.27;76.04;100905.59;4850876;29;44809;-83
2023/07/20 04:07:36;;;;;;;;;7.67;6.00;;;;;19.29;75.94;100906.44;4836250;29;45436;-82
2023/07/20 04:10:04;;;;;;;;;4.33;4.33;;;;;19.36;76.72;100896.41;4835683;29;44840;-83
2023/07/20 04:12:30;;;;;;;;;5.00;5.00;;;;;19.28;77.15;100893.88;4840030;29;47803;-82
2023/07/20 04:14:55;;;;;;;;;4.67;3.67;;;;;19.36;76.91;100904.50;4853480;29;45441;-83
2023/07/20 04:17:20;;;;;;;;;5.00;4.00;;;;;19.32;77.97;100890.19;4852970;29;45026;-83
2023/07/20 04:19:46;;;;;;;;;6.67;6.67;;;;;19.36;76.98;100902.69;4852915;29;44875;-83
2023/07/20 04:22:11;;;;;;;;;3.00;3.00;;;;;19.33;77.30;100889.28;4853227;29;46817;-83
2023/07/20 04:24:37;;;;;;;;;5.33;5.33;;;;;19.35;77.61;100895.53;4853400;29;44878;-83
2023/07/20 04:27:02;;;;;;;;;6.00;6.00;;;;;19.35;76.97;100884.75;4854530;29;44883;-83
2023/07/20 04:29:28;;;;;;;;;9.00;8.33;;;;;19.39;77.30;100883.78;4854718;29;44844;-82
2023/07/20 04:31:53;;;;;;;;;6.33;5.00;;;;;19.41;77.27;100885.53;4852792;29;44981;-83
2023/07/20 04:34:32;;;;;;;;;4.67;4.00;;;;;19.53;77.14;100891.59;4852664;29;44799;-83
2023/07/20 04:36:57;;;;;;;;;5.33;5.33;;;;;19.41;77.38;100877.44;4850598;29;45266;-83
2023/07/20 04:39:22;;;;;;;;;5.00;4.00;;;;;19.46;76.86;100884.53;4851630;29;44757;-82
2023/07/20 04:41:48;;;;;;;;;7.33;6.33;;;;;19.48;76.89;100882.69;4852059;29;46102;-83
2023/07/20 04:47:35;;;;;;;;;5.67;5.00;;;;;19.52;76.72;100884.41;4854050;29;45398;-83
2023/07/20 04:50:01;;;;;;;;;4.33;4.33;;;;;19.59;76.91;100895.94;4852104;29;44872;-82
2023/07/20 04:52:26;;;;;;;;;5.00;5.00;;;;;19.57;76.92;100878.91;4850171;29;46928;-83
2023/07/20 04:54:52;;;;;;;;;5.67;4.33;;;;;19.67;77.25;100877.78;4866450;29;44755;-82
2023/07/20 04:57:18;;;;;;;;;5.67;5.67;;;;;19.81;76.72;100887.44;4851264;29;44957;-83
2023/07/20 04:59:44;;;;;;;;;7.33;6.00;;;;;19.78;76.44;100873.09;4866915;29;44806;-82
2023/07/20 05:02:11;;;;;;;;;4.67;3.67;;;;;19.95;76.22;100894.28;4848632;29;46918;-83
2023/07/20 05:04:39;;;;;;;;;5.00;5.00;;;;;19.92;76.48;100882.69;4850024;29;45501;-83
2023/07/20 05:07:04;;;;;;;;;4.33;4.33;;;;;20.06;75.87;100894.06;4852597;29;44841;-83
2023/07/20 05:09:30;;;;;;;;;4.67;4.67;;;;;20.10;75.87;100878.69;4852875;29;44964;-83
2023/07/20 05:11:55;;;;;;;;;8.33;5.33;;;;;20.03;75.80;100867.13;4854522;29;46036;-85
2023/07/20 05:14:20;;;;;;;;;4.00;4.00;;;;;20.16;75.11;100878.56;4837854;29;45462;-84
2023/07/20 05:16:46;;;;;;;;;7.33;5.67;;;;;20.14;75.72;100869.59;4852165;29;45063;-86
2023/07/20 05:19:11;;;;;;;;;6.33;5.00;;;;;20.17;75.12;100864.13;4838808;29;44902;-85
2023/07/20 05:21:40;;;;;;;;;5.00;5.00;;;;;20.39;74.81;100899.59;4855533;29;45140;-84
2023/07/20 05:24:05;;;;;;;;;6.00;5.00;;;;;20.43;73.95;100892.31;4857287;29;44745;-84
2023/07/20 05:26:31;;;;;;;;;9.00;7.67;;;;;20.53;73.97;100896.56;4855815;29;44728;-84
2023/07/20 05:28:56;;;;;;;;;4.67;4.67;;;;;20.58;73.65;100911.78;4854857;29;45258;-84
2023/07/20 05:31:22;;;;;;;;;4.00;4.00;;;;;20.57;73.49;100891.03;4838064;29;47160;-85
2023/07/20 05:33:47;;;;;;;;;7.00;7.00;;;;;20.75;73.33;100905.06;4837874;29;44837;-84
2023/07/20 05:36:23;;;;;;;;;4.00;4.00;;;;;20.75;73.03;100886.16;4856298;29;44830;-84
2023/07/20 05:38:58;;;;;;;;;6.00;4.67;;;;;20.83;71.84;100897.63;4840957;29;45036;-85
2023/07/20 05:41:23;;;;;;;;;4.00;4.00;;;;;20.76;72.22;100912.22;4855642;29;45364;-86
2023/07/20 05:43:52;;;;;;;;;7.00;5.33;;;;;20.74;72.13;100903.28;4839410;29;45413;-86
2023/07/20 05:46:19;;;;;;;;;6.00;4.67;;;;;20.76;71.99;100901.41;4855938;29;44808;-86
2023/07/20 05:48:47;;;;;;;;;4.67;4.67;;;;;20.82;71.76;100895.84;4855694;29;44902;-85
2023/07/20 05:51:13;;;;;;;;;5.33;4.00;;;;;20.97;71.63;100890.06;4834786;29;47775;-85
2023/07/20 05:53:39;;;;;;;;;5.67;4.00;;;;;21.20;71.18;100912.00;4834485;29;45488;-85
2023/07/20 05:56:10;;;;;;;;;5.67;5.67;;;;;21.19;70.15;100873.25;4836395;29;44865;-84
2023/07/20 05:59:23;;;;;;;;;5.00;4.67;;;;;21.44;69.85;100899.66;4835142;29;45398;-85
2023/07/20 06:01:49;;;;;;;;;6.00;6.00;;;;;21.31;69.69;100893.63;4848393;29;45345;-84
2023/07/20 06:04:25;;;;;;;;;7.00;6.00;;;;;21.44;69.43;100878.00;4852724;29;44785;-85
2023/07/20 06:06:53;;;;;;;;;7.67;6.00;;;;;21.41;69.09;100872.63;4837538;29;44809;-84
2023/07/20 06:09:18;;;;;;;;;6.00;6.00;;;;;21.55;68.93;100903.81;4836142;29;44848;-84
2023/07/20 06:12:41;;;;;;;;;5.67;5.00;;;;;21.77;68.32;100898.66;4817693;29;47067;-85
2023/07/20 06:15:31;;;;;;;;;8.00;6.33;;;;;21.70;67.79;100885.34;4818701;29;45396;-86
2023/07/20 06:17:57;;;;;;;;;5.33;4.33;;;;;21.48;68.33;100887.81;4819195;29;44916;-86
2023/07/20 06:20:24;;;;;;;;;6.00;6.00;;;;;21.52;68.41;100892.19;4833800;29;44862;-86
2023/07/20 06:22:50;;;;;;;;;6.00;5.00;;;;;21.46;68.42;100886.97;4816849;29;47519;-86
2023/07/20 06:28:37;;;;;;;;;7.33;6.33;;;;;21.65;67.94;100885.47;4820132;29;45330;-85
2023/07/20 06:31:03;;;;;;;;;7.00;6.00;;;;;21.65;67.76;100899.00;4819024;29;44897;-85
2023/07/20 06:33:29;;;;;;;;;7.67;4.67;;;;;21.57;67.97;100890.22;4820706;29;45494;-86
2023/07/20 06:35:56;;;;;;;;;5.00;5.00;;;;;21.63;67.98;100886.44;4818994;29;45728;-86
2023/07/20 06:38:23;;;;;;;;;5.00;3.00;;;;;21.46;67.70;100886.97;4836321;29;44867;-87
2023/07/20 06:40:52;;;;;;;;;6.00;5.33;;;;;21.48;67.68;100890.50;4834644;29;45403;-86
2023/07/20 06:43:20;;;;;;;;;4.67;4.33;;;;;21.45;68.27;100869.84;4818438;29;45572;-86
2023/07/20 06:45:52;;;;;;;;;7.67;5.00;;;;;21.75;67.86;100895.13;4815289;29;45165;-86
2023/07/20 06:48:28;;;;;;;;;5.33;4.67;;;;;21.59;67.58;100853.19;4816145;29;44923;-85
2023/07/20 06:54:16;;;;;;;;;6.67;5.67;;;;;22.03;66.23;100877.13;4818188;29;45630;-85
2023/07/20 06:56:50;;;;;;;;;5.67;5.67;;;;;21.83;65.96;100864.19;4814365;29;45448;-85
2023/07/20 06:59:23;;;;;;;;;7.33;7.33;;;;;21.78;66.29;100851.69;4816568;29;45453;-86
2023/07/20 07:02:36;;;;;;;;;6.33;6.33;;;;;22.08;65.64;100854.38;4831802;29;45416;-85
2023/07/20 07:05:06;;;;;;;;;6.00;6.00;;;;;22.11;65.26;100854.28;4830871;29;45717;-86
2023/07/20 07:08:15;;;;;;;;;7.00;6.33;;;;;22.41;65.25;100877.75;4822287;29;45501;-87
2023/07/20 07:10:53;;;;;;;;;5.00;5.00;;;;;22.39;64.58;100864.25;4825875;29;45365;-86
2023/07/20 07:13:28;;;;;;;;;9.00;7.67;;;;;22.62;64.19;100884.28;4827513;29;44990;-86
2023/07/20 07:30:21;;;;;;;;;9.33;8.33;;;;;23.08;63.13;100882.72;5146093;23;45936;-85
2023/07/20 07:38:06;;;;;;;;;11.00;9.00;;;;;23.16;62.09;100888.75;4860760;23;46342;-84
2023/07/20 07:53:45;;;;;;;;;10.00;8.00;;;;;23.66;60.51;100883.28;2474043;23;45308;-85
2023/07/20 08:08:32;;;;;;;;;10.67;10.33;;;;;23.77;60.10;100842.16;4870363;29;44918;-83
2023/07/20 08:11:05;;;;;;;;;9.33;9.00;;;;;23.74;59.64;100832.28;4883673;29;45543;-83
2023/07/20 08:24:30;;;;;;;;;8.67;8.67;;;;;24.34;58.53;100856.22;2159928;23;46233;-82
2023/07/20 08:29:45;;;;;;;;;9.00;9.00;;;;;24.12;58.13;100823.59;4969152;23;44979;-82
2023/07/20 08:32:10;;;;;;;;;11.00;8.00;;;;;24.24;57.65;100854.78;4856843;29;44839;-82
2023/07/20 08:34:59;;;;;;;;;14.33;10.00;;;;;24.26;58.14;100851.09;4870821;29;44923;-83
2023/07/20 08:38:05;;;;;;;;;;;;;;;;;;;;;
2023/07/20 08:51:16;;;;;;;;;;;;;;;;;;;;;
2023/07/20 09:53:36;;;;;;;;;7.67;5.67;;;;;25.27;49.43;100790.53;4854876;29;45024;-86
2023/07/20 10:22:27;;;;;;;;;1.50;1.50;;;;;27.09;43.29;100787.84;4880252;28;46111;-84
2023/07/20 10:24:58;;;;;;;;;2.75;2.75;;;;;27.10;42.80;100774.09;4878745;29;45676;-86
2023/07/20 10:27:26;;;;;;;;;1.67;1.67;;;;;27.05;41.90;100759.84;4877285;29;45013;-84
2023/07/20 11:22:11;;;;;;;;;;;;;;;;;;;;;
2023/07/20 11:26:03;;;;;;;;;;;;;;;;;;;;;
2023/07/20 15:40:37;;;;;;;;;4.00;4.00;;;;;30.65;27.71;100528.13;4846347;29;45301;-86
2023/07/20 15:45:40;;;;;;;;;2.00;2.00;;;;;30.56;28.35;100528.81;5517118;23;46657;-84
2023/07/20 15:48:09;;;;;;;;;0.33;0.33;;;;;30.30;28.31;100490.44;4849376;29;45439;-85
2023/07/20 15:50:37;;;;;;;;;1.67;0.33;;;;;30.13;28.39;100488.88;4849429;29;44922;-83
2023/07/20 16:03:14;;;;;;;;;1.67;1.67;;;;;29.77;28.90;100482.28;4801049;29;44942;-91
2023/07/20 16:05:49;;;;;;;;;1.33;1.33;;;;;29.67;29.38;100487.50;4800850;29;45043;-86
2023/07/20 16:11:32;;;;;;;;;1.00;1.00;;;;;29.44;29.10;100474.53;4790735;23;46799;-87
2023/07/20 16:21:14;;;;;;;;;0.00;0.00;;;;;29.20;29.70;100486.16;4858368;29;45100;-87
2023/07/20 16:23:52;;;;;;;;;0.67;0.67;;;;;29.34;29.86;100498.06;4852547;29;45477;-88
2023/07/20 16:26:18;;;;;;;;;2.00;2.00;;;;;29.15;30.07;100469.19;4833975;29;45491;-85
2023/07/20 16:29:05;;;;;;;;;;;;;;;;;;;;;
2023/07/20 16:38:21;;;;;;;;;2.00;2.00;;;;;28.68;30.69;100481.41;4784825;29;45073;-87
2023/07/20 16:40:57;;;;;;;;;0.50;0.50;;;;;28.51;30.37;100480.66;4774764;29;44889;-87
2023/07/20 16:43:23;;;;;;;;;1.00;1.00;;;;;28.35;30.80;100479.88;4776467;29;44871;-87
2023/07/20 16:45:49;;;;;;;;;1.33;0.67;;;;;28.42;31.35;100488.56;4777355;29;47077;-87
2023/07/20 16:48:15;;;;;;;;;1.33;1.00;;;;;28.31;31.32;100475.56;4793495;29;45473;-87
2023/07/20 16:54:07;;;;;;;;;4.00;2.00;;;;;28.02;31.12;100445.50;4794243;29;44844;-87
2023/07/20 16:57:01;;;;;;;;;0.67;0.67;;;;;28.00;31.24;100454.78;4777742;29;46079;-87
2023/07/20 16:59:28;;;;;;;;;2.33;1.00;;;;;27.71;31.34;100441.94;4777237;29;44846;-86
2023/07/20 17:01:57;;;;;;;;;2.00;2.00;;;;;27.73;31.28;100456.41;4777171;29;45404;-86
2023/07/20 17:04:22;;;;;;;;;0.67;0.67;;;;;27.74;31.48;100469.06;4790248;29;45289;-86
2023/07/20 17:06:53;;;;;;;;;2.00;2.00;;;;;27.53;32.00;100426.69;4792947;29;45210;-87
2023/07/20 17:09:19;;;;;;;;;1.00;1.00;;;;;27.72;32.07;100462.81;4789439;29;44925;-85
2023/07/20 17:11:44;;;;;;;;;1.00;1.00;;;;;27.62;31.92;100442.50;4772412;29;45452;-85
2023/07/20 17:14:10;;;;;;;;;1.00;1.00;;;;;27.68;32.24;100457.66;4789001;29;45364;-86
2023/07/20 17:17:20;;;;;;;;;2.33;2.33;;;;;27.80;32.03;100470.56;4813497;29;46695;-86
2023/07/20 17:19:46;;;;;;;;;1.00;1.00;;;;;27.51;32.59;100454.13;4832819;29;45352;-86
2023/07/20 17:22:29;;;;;;;;;1.33;1.33;;;;;27.57;32.17;100454.69;4815235;29;45528;-86
2023/07/20 17:24:55;;;;;;;;;1.00;1.00;;;;;27.41;32.44;100449.28;4815888;29;45355;-87
2023/07/20 17:27:21;;;;;;;;;3.67;2.00;;;;;27.49;32.34;100464.25;4814854;29;47189;-86
2023/07/20 17:30:21;;;;;;;;;2.00;2.00;;;;;27.33;32.73;100425.19;4815313;29;45104;-86
2023/07/20 17:32:46;;;;;;;;;1.67;1.67;;;;;27.51;32.36;100466.88;4816884;29;45379;-85
2023/07/20 17:35:14;;;;;;;;;1.75;1.25;;;;;27.34;32.80;100443.31;4800392;29;44846;-86
2023/07/20 17:37:41;;;;;;;;;1.25;1.00;;;;;27.26;32.86;100441.06;4816011;29;47429;-87
2023/07/20 17:40:11;;;;;;;;;0.00;0.00;;;;;27.37;32.69;100455.91;4814267;29;45759;-86
2023/07/20 17:42:38;;;;;;;;;2.33;1.33;;;;;27.23;32.63;100443.97;4814852;29;45140;-87
2023/07/20 17:45:04;;;;;;;;;1.67;1.67;;;;;27.24;32.50;100453.03;4814213;29;44917;-86
2023/07/20 17:47:33;;;;;;;;;0.33;0.33;;;;;27.41;33.02;100460.22;4828979;29;45732;-86
2023/07/20 17:49:58;;;;;;;;;1.33;0.33;;;;;27.23;32.45;100445.78;4814451;29;45495;-86
2023/07/20 17:52:24;;;;;;;;;3.00;2.00;;;;;27.19;33.17;100438.75;4814720;29;45394;-86
2023/07/20 17:54:50;;;;;;;;;0.33;0.33;;;;;27.18;32.63;100442.47;4815037;29;45613;-86
2023/07/20 17:57:22;;;;;;;;;2.33;1.33;;;;;27.28;33.16;100443.69;4813463;29;46866;-86
2023/07/20 17:59:47;;;;;;;;;0.67;0.67;;;;;27.06;33.02;100430.41;4830717;29;45545;-87
2023/07/20 18:05:35;;;;;;;;;2.00;2.00;;;;;27.02;32.67;100437.03;4831644;29;44812;-86
2023/07/20 18:08:12;;;;;;;;;3.33;2.67;;;;;27.22;32.90;100455.81;4830190;29;45169;-87
2023/07/20 18:10:38;;;;;;;;;3.67;2.33;;;;;27.15;33.19;100462.66;4828935;29;44963;-86
2023/07/20 18:13:03;;;;;;;;;1.33;1.33;;;;;26.90;33.26;100428.59;4848906;29;44827;-87
2023/07/20 18:15:34;;;;;;;;;2.33;1.00;;;;;26.98;32.85;100432.72;4850047;29;44854;-87
2023/07/20 18:17:59;;;;;;;;;4.00;3.00;;;;;27.07;32.94;100470.41;4847101;29;47135;-86
2023/07/20 18:20:25;;;;;;;;;2.00;2.00;;;;;26.91;33.38;100449.47;4849088;29;44749;-86
2023/07/20 18:22:50;;;;;;;;;0.33;0.33;;;;;26.85;33.48;100448.97;4849647;29;44764;-86
2023/07/20 18:25:18;;;;;;;;;1.33;1.33;;;;;26.76;32.96;100430.38;4849008;29;45408;-86
2023/07/20 18:27:44;;;;;;;;;1.33;1.33;;;;;26.93;33.37;100471.22;4846852;29;45498;-87
2023/07/20 18:30:09;;;;;;;;;2.33;2.33;;;;;26.67;33.61;100437.25;4847950;29;45336;-86
2023/07/20 18:32:37;;;;;;;;;1.33;1.33;;;;;26.71;33.40;100456.09;4846752;29;44878;-86
2023/07/20 18:35:11;;;;;;;;;2.00;2.00;;;;;26.77;33.49;100452.13;4847032;29;45398;-86
2023/07/20 18:38:20;;;;;;;;;1.67;1.67;;;;;26.85;33.45;100471.66;4847147;29;47011;-86
2023/07/20 18:40:49;;;;;;;;;1.00;1.00;;;;;26.47;33.84;100428.34;4847227;29;45402;-86
2023/07/20 18:43:14;;;;;;;;;1.00;1.00;;;;;26.40;33.96;100429.66;4846825;29;45437;-86
2023/07/20 18:45:47;;;;;;;;;1.00;1.00;;;;;26.52;33.88;100445.34;4846555;29;44959;-86
2023/07/20 18:48:23;;;;;;;;;2.00;2.00;;;;;26.61;33.80;100457.59;4845972;29;45517;-86
2023/07/20 18:50:58;;;;;;;;;1.00;1.00;;;;;26.32;34.47;100442.84;4846446;29;44898;-87
2023/07/20 18:53:26;;;;;;;;;1.33;1.33;;;;;26.42;34.40;100456.81;4847247;29;45650;-85
2023/07/20 18:56:02;;;;;;;;;2.33;1.67;;;;;26.44;34.38;100453.06;4849129;29;45296;-87
2023/07/20 18:58:28;;;;;;;;;2.00;1.33;;;;;26.19;34.03;100430.88;4847052;29;47208;-87
2023/07/20 19:01:19;;;;;;;;;3.00;2.00;;;;;26.26;34.59;100440.47;4848138;29;44941;-85
2023/07/20 19:03:44;;;;;;;;;1.67;1.67;;;;;26.09;34.31;100435.94;4847894;29;45498;-85
2023/07/20 19:06:23;;;;;;;;;3.67;2.00;;;;;26.26;34.36;100456.84;4847914;29;44977;-86
2023/07/20 19:08:49;;;;;;;;;3.33;1.67;;;;;26.04;34.44;100433.50;4845699;29;46659;-86
2023/07/20 19:11:15;;;;;;;;;1.33;1.00;;;;;26.09;34.80;100441.41;4845726;29;45793;-85
2023/07/20 19:13:40;;;;;;;;;2.67;1.67;;;;;26.16;34.66;100461.91;4847385;29;44762;-86
2023/07/20 19:16:07;;;;;;;;;2.33;1.33;;;;;25.99;34.72;100441.03;4847223;29;45868;-86
2023/07/20 19:18:40;;;;;;;;;4.00;2.67;;;;;26.02;35.17;100449.03;4846414;29;47423;-85
2023/07/20 19:21:06;;;;;;;;;1.33;1.33;;;;;26.03;35.06;100448.06;4847205;29;45067;-86
2023/07/20 19:23:39;;;;;;;;;2.67;2.67;;;;;26.13;35.08;100468.38;4847376;29;44958;-85
2023/07/20 19:26:06;;;;;;;;;2.33;2.33;;;;;26.12;34.83;100468.50;4847186;29;44969;-86
2023/07/20 19:28:52;;;;;;;;;1.33;1.33;;;;;26.20;35.08;100470.78;4846911;29;45914;-85
2023/07/20 19:31:17;;;;;;;;;2.00;2.00;;;;;25.87;35.18;100434.38;4846488;29;45378;-85
2023/07/20 19:33:46;;;;;;;;;2.00;2.00;;;;;25.90;35.01;100430.66;4846517;29;44911;-86
2023/07/20 19:36:11;;;;;;;;;2.00;2.00;;;;;25.77;34.98;100435.81;4846112;29;44938;-87
2023/07/20 19:38:37;;;;;;;;;2.00;2.00;;;;;25.82;35.07;100451.94;4862272;29;45370;-86
2023/07/20 19:41:05;;;;;;;;;2.00;2.00;;;;;25.80;35.33;100457.47;4845946;29;44824;-86
2023/07/20 19:43:30;;;;;;;;;3.33;3.33;;;;;25.87;35.37;100471.63;4845706;29;44791;-86
2023/07/20 19:45:59;;;;;;;;;3.00;3.00;;;;;25.81;35.91;100470.13;4846793;29;44950;-86
2023/07/20 19:48:24;;;;;;;;;1.33;1.33;;;;;25.61;36.18;100475.75;4849262;29;45397;-87
2023/07/20 19:50:50;;;;;;;;;5.33;5.00;;;;;25.68;37.06;100501.72;4849157;29;45367;-87
2023/07/20 19:53:17;;;;;;;;;3.00;3.00;;;;;25.57;38.31;100504.09;4847919;29;44931;-87
2023/07/20 19:55:45;;;;;;;;;4.00;4.00;;;;;25.44;39.04;100525.66;4847201;29;45403;-86
2023/07/20 19:58:11;;;;;;;;;4.33;4.33;;;;;25.16;39.90;100494.34;4845143;29;47139;-86
2023/07/20 20:00:39;;;;;;;;;4.67;4.00;;;;;25.07;41.52;100511.16;4848462;29;45616;-86
2023/07/20 20:03:08;;;;;;;;;5.67;4.00;;;;;25.05;42.08;100540.28;4846913;29;45469;-85
2023/07/20 20:05:35;;;;;;;;;6.00;6.00;;;;;24.87;42.20;100542.94;4848101;29;44864;-85
2023/07/20 20:08:05;;;;;;;;;3.67;3.67;;;;;24.86;42.46;100540.28;4845038;29;45792;-86
2023/07/20 20:10:35;;;;;;;;;4.00;4.00;;;;;24.76;43.15;100539.84;4844915;29;45802;-86